createdAt,value
2019-05-09T00:02:27.806Z,57.18
2019-05-09T00:04:57.192Z,59.25
2019-05-09T00:07:26.598Z,59.08
2019-05-09T00:09:56.954Z,58.81
2019-05-09T00:12:26.342Z,56.85
2019-05-09T00:14:55.738Z,57.66
2019-05-09T00:17:25.118Z,57.29
2019-05-09T00:19:56.153Z,57.05
2019-05-09T00:22:25.545Z,57.76
2019-05-09T00:24:54.936Z,58.78
2019-05-09T00:30:06.714Z,59.89
2019-05-09T00:32:37.746Z,59.29
2019-05-09T00:35:14.136Z,59.31
2019-05-09T00:37:54.007Z,60.64
2019-05-09T00:40:24.435Z,60.15
2019-05-09T00:42:54.598Z,56.40
2019-05-09T00:45:25.977Z,61.92
2019-05-09T00:47:55.370Z,62.08
2019-05-09T00:50:24.767Z,64.67
2019-05-09T00:52:54.160Z,64.11
2019-05-09T00:55:24.626Z,63.69
2019-05-09T00:57:54.071Z,64.16
2019-05-09T01:00:24.364Z,64.88
2019-05-09T01:02:54.265Z,65.68
2019-05-09T01:05:23.985Z,65.68
2019-05-09T01:07:53.891Z,66.00
2019-05-09T01:10:23.813Z,62.13
2019-05-09T01:12:54.260Z,62.67
2019-05-09T01:15:24.411Z,63.24
2019-05-09T01:17:53.874Z,64.73
2019-05-09T01:20:24.170Z,65.09
2019-05-09T01:22:54.198Z,66.20
2019-05-09T01:25:24.145Z,67.15
2019-05-09T01:27:53.980Z,65.49
2019-05-09T01:30:24.293Z,66.21
2019-05-09T01:32:55.436Z,66.37
2019-05-09T01:35:24.824Z,66.28
2019-05-09T01:37:54.206Z,66.86
2019-05-09T01:40:23.935Z,68.37
2019-05-09T01:42:53.874Z,66.95
2019-05-09T01:45:23.753Z,66.66
2019-05-09T01:47:54.333Z,66.70
2019-05-09T01:50:23.723Z,66.90
2019-05-09T01:52:53.411Z,66.88
2019-05-09T01:55:24.695Z,65.85
2019-05-09T01:57:54.086Z,65.71
2019-05-09T02:00:23.981Z,65.36
2019-05-09T02:02:54.181Z,64.21
2019-05-09T02:05:24.224Z,65.13
2019-05-09T02:07:54.352Z,65.46
2019-05-09T02:10:24.362Z,66.79
2019-05-09T02:12:54.824Z,66.06
2019-05-09T02:15:43.448Z,66.76
2019-05-09T02:18:29.205Z,63.05
2019-05-09T02:20:58.590Z,63.74
2019-05-09T02:23:27.977Z,64.99
2019-05-09T02:25:57.435Z,64.68
2019-05-09T02:28:26.831Z,64.87
2019-05-09T02:30:56.342Z,64.30
2019-05-09T02:33:26.442Z,65.31
2019-05-09T02:36:01.453Z,65.39
2019-05-09T02:38:28.781Z,64.70
2019-05-09T02:40:59.553Z,64.91
2019-05-09T02:43:29.370Z,65.72
2019-05-09T02:46:00.411Z,64.60
2019-05-09T02:48:29.811Z,65.28
2019-05-09T02:51:00.244Z,64.25
2019-05-09T02:53:30.027Z,61.67
2019-05-09T02:55:59.426Z,61.35
2019-05-09T02:58:30.452Z,62.50
2019-05-09T03:01:01.505Z,64.81
2019-05-09T03:03:35.161Z,65.88
2019-05-09T03:06:04.552Z,66.25
2019-05-09T03:08:33.922Z,67.62
2019-05-09T03:11:03.345Z,66.66
2019-05-09T03:13:32.716Z,66.39
2019-05-09T03:16:03.800Z,66.34
2019-05-09T03:18:33.209Z,65.64
2019-05-09T03:21:08.975Z,65.49
2019-05-09T03:23:38.855Z,65.81
2019-05-09T03:26:10.122Z,65.77
2019-05-09T03:28:43.844Z,66.63
2019-05-09T03:31:14.861Z,67.02
2019-05-09T03:33:44.250Z,66.33
2019-05-09T03:36:13.628Z,67.03
2019-05-09T03:38:43.261Z,66.81
2019-05-09T03:41:13.478Z,64.38
2019-05-09T03:43:42.867Z,65.82
2019-05-09T03:46:22.745Z,66.77
2019-05-09T03:49:00.596Z,66.24
2019-05-09T03:51:30.259Z,67.96
2019-05-09T03:53:59.656Z,69.94
2019-05-09T03:56:30.678Z,68.18
2019-05-09T03:59:00.063Z,68.20
2019-05-09T04:01:29.598Z,70.15
2019-05-09T04:03:58.978Z,69.85
2019-05-09T04:06:28.424Z,70.81
2019-05-09T04:08:58.472Z,72.06
2019-05-09T04:11:28.120Z,73.08
2019-05-09T04:13:59.607Z,73.12
2019-05-09T04:16:29.010Z,73.00
2019-05-09T04:18:58.404Z,73.44
2019-05-09T04:21:28.122Z,74.08
2019-05-09T04:23:58.423Z,74.00
2019-05-09T04:26:29.651Z,72.88
2019-05-09T04:28:59.046Z,73.47
2019-05-09T04:31:28.502Z,72.88
2019-05-09T04:33:57.903Z,73.36
2019-05-09T04:36:39.568Z,73.59
2019-05-09T04:39:12.601Z,75.35
2019-05-09T04:41:42.143Z,77.40
2019-05-09T04:44:28.536Z,77.92
2019-05-09T04:47:00.098Z,78.75
2019-05-09T04:49:29.960Z,79.45
2019-05-09T04:52:00.166Z,79.43
2019-05-09T04:54:29.516Z,78.39
2019-05-09T04:56:58.900Z,79.72
2019-05-09T04:59:28.589Z,79.80
2019-05-09T05:02:02.536Z,79.51
2019-05-09T05:04:31.920Z,78.99
2019-05-09T05:07:01.329Z,79.24
2019-05-09T05:09:30.710Z,79.97
2019-05-09T05:12:00.085Z,79.19
2019-05-09T05:14:30.044Z,80.61
2019-05-09T05:17:07.427Z,81.13
2019-05-09T05:19:31.668Z,81.39
2019-05-09T05:22:03.077Z,81.72
2019-05-09T05:24:38.189Z,81.79
2019-05-09T05:27:08.385Z,82.66
2019-05-09T05:29:38.472Z,82.99
2019-05-09T05:32:09.546Z,82.24
2019-05-09T05:34:40.556Z,81.75
2019-05-09T05:37:10.301Z,80.75
2019-05-09T05:39:39.681Z,79.25
2019-05-09T05:42:09.065Z,81.04
2019-05-09T05:44:38.709Z,82.73
2019-05-09T05:47:13.422Z,83.39
2019-05-09T05:49:42.791Z,83.21
2019-05-09T05:52:12.172Z,82.95
2019-05-09T05:54:42.081Z,83.25
2019-05-09T05:57:11.791Z,83.38
2019-05-09T05:59:41.657Z,83.32
2019-05-09T06:02:10.984Z,83.69
2019-05-09T06:04:40.379Z,82.69
2019-05-09T06:07:09.758Z,82.44
2019-05-09T06:09:39.133Z,82.11
2019-05-09T06:12:08.606Z,83.02
2019-05-09T06:14:38.099Z,83.02
2019-05-09T06:17:08.230Z,82.76
2019-05-09T06:19:38.198Z,82.49
2019-05-09T06:22:08.436Z,83.33
2019-05-09T06:24:38.693Z,83.22
2019-05-09T06:27:10.378Z,80.56
2019-05-09T06:29:39.514Z,82.35
2019-05-09T06:32:08.887Z,82.56
2019-05-09T06:34:41.821Z,81.43
2019-05-09T06:37:09.445Z,82.32
2019-05-09T06:39:38.874Z,80.74
2019-05-09T06:42:09.217Z,80.62
2019-05-09T06:44:58.418Z,77.24
2019-05-09T06:47:48.670Z,77.68
2019-05-09T06:50:19.309Z,78.46
2019-05-09T06:52:48.683Z,78.36
2019-05-09T06:55:18.069Z,79.02
2019-05-09T06:57:48.863Z,78.63
2019-05-09T07:00:23.097Z,78.33
2019-05-09T07:03:00.565Z,78.12
2019-05-09T07:05:29.897Z,78.53
2019-05-09T07:08:03.648Z,81.12
2019-05-09T07:10:37.716Z,80.54
2019-05-09T07:13:07.896Z,77.57
2019-05-09T07:15:37.685Z,77.58
2019-05-09T07:18:08.095Z,79.90
2019-05-09T07:20:37.959Z,79.57
2019-05-09T07:23:09.174Z,78.23
2019-05-09T07:25:41.187Z,80.72
2019-05-09T07:28:10.570Z,82.48
2019-05-09T07:30:41.669Z,81.94
2019-05-09T07:33:15.409Z,81.37
2019-05-09T07:35:44.801Z,81.58
2019-05-09T07:38:14.199Z,81.97
2019-05-09T07:40:43.564Z,82.28
2019-05-09T07:43:12.961Z,82.80
2019-05-09T07:45:43.983Z,82.41
2019-05-09T07:48:13.372Z,80.91
2019-05-09T07:50:42.760Z,81.20
2019-05-09T07:53:12.158Z,82.53
2019-05-09T07:55:41.542Z,81.10
2019-05-09T07:58:14.252Z,81.01
2019-05-09T08:00:42.027Z,80.17
2019-05-09T08:03:13.228Z,81.11
2019-05-09T08:05:42.745Z,80.42
2019-05-09T08:08:18.621Z,78.74
2019-05-09T08:10:48.104Z,79.40
2019-05-09T08:13:18.175Z,77.92
2019-05-09T08:15:48.565Z,77.98
2019-05-09T08:18:17.947Z,76.82
2019-05-09T08:20:47.962Z,77.56
2019-05-09T08:23:18.355Z,79.34
2019-05-09T08:25:48.527Z,78.58
2019-05-09T08:28:20.143Z,77.26
2019-05-09T08:30:49.097Z,76.39
2019-05-09T08:33:19.543Z,78.67
2019-05-09T08:35:52.530Z,78.22
2019-05-09T08:38:20.096Z,79.73
2019-05-09T08:40:51.130Z,79.16
2019-05-09T08:43:20.519Z,78.49
2019-05-09T08:45:49.959Z,78.43
2019-05-09T08:48:19.362Z,78.92
2019-05-09T08:50:50.413Z,75.60
2019-05-09T08:53:19.849Z,75.53
2019-05-09T08:55:49.192Z,75.72
2019-05-09T08:58:19.855Z,76.28
2019-05-09T09:00:49.395Z,74.37
2019-05-09T09:03:18.860Z,73.36
2019-05-09T09:05:48.684Z,72.16
2019-05-09T09:08:18.563Z,75.53
2019-05-09T09:10:48.800Z,74.08
2019-05-09T09:13:18.611Z,74.30
2019-05-09T09:16:05.179Z,70.66
2019-05-09T09:18:19.128Z,67.75
2019-05-09T09:20:48.773Z,69.28
2019-05-09T09:23:18.324Z,70.94
2019-05-09T09:25:48.716Z,71.67
2019-05-09T09:28:18.480Z,72.83
2019-05-09T09:30:48.552Z,72.17
2019-05-09T09:33:18.123Z,70.44
2019-05-09T09:35:48.950Z,70.20
2019-05-09T09:38:18.608Z,70.20
2019-05-09T09:40:48.067Z,64.47
2019-05-09T09:43:17.805Z,66.13
2019-05-09T09:45:48.037Z,71.51
2019-05-09T09:48:18.419Z,65.91
2019-05-09T09:50:51.392Z,68.95
2019-05-09T09:53:18.962Z,66.84
2019-05-09T09:55:48.412Z,70.04
2019-05-09T09:58:19.029Z,75.40
2019-05-09T10:01:08.817Z,70.75
2019-05-09T10:03:37.323Z,69.79
2019-05-09T10:06:06.691Z,71.02
2019-05-09T10:08:39.582Z,66.98
2019-05-09T10:11:08.396Z,64.29
2019-05-09T10:13:37.781Z,70.89
2019-05-09T10:16:26.570Z,66.00
2019-05-09T10:18:50.285Z,73.40
2019-05-09T10:21:24.196Z,73.59
2019-05-09T10:23:53.724Z,68.16
2019-05-09T10:26:23.116Z,65.07
2019-05-09T10:28:52.318Z,65.07
2019-05-09T10:31:21.708Z,65.73
2019-05-09T10:33:51.520Z,64.55
2019-05-09T10:36:20.880Z,67.25
2019-05-09T10:38:50.273Z,65.73
2019-05-09T10:41:19.671Z,65.69
2019-05-09T10:43:57.895Z,66.05
2019-05-09T10:46:52.029Z,65.73
2019-05-09T10:49:09.562Z,67.50
2019-05-09T10:51:39.927Z,67.79
2019-05-09T10:54:09.376Z,67.30
2019-05-09T10:56:38.767Z,67.32
2019-05-09T10:59:08.163Z,68.61
2019-05-09T11:01:38.329Z,69.36
2019-05-09T11:04:08.423Z,68.99
2019-05-09T11:06:39.193Z,68.63
2019-05-09T11:09:09.920Z,67.96
2019-05-09T11:11:39.448Z,68.96
2019-05-09T11:14:08.962Z,71.26
2019-05-09T11:16:45.889Z,72.38
2019-05-09T11:19:09.425Z,72.87
2019-05-09T11:21:39.359Z,72.95
2019-05-09T11:24:08.963Z,71.59
2019-05-09T11:26:39.909Z,71.01
2019-05-09T11:29:09.634Z,71.45
2019-05-09T11:31:39.029Z,70.18
2019-05-09T11:34:09.101Z,73.20
2019-05-09T11:36:38.631Z,73.28
2019-05-09T11:39:10.846Z,66.31
2019-05-09T11:41:40.050Z,72.64
2019-05-09T11:44:09.498Z,74.29
2019-05-09T11:46:38.928Z,74.31
2019-05-09T11:49:08.699Z,74.19
2019-05-09T11:51:38.160Z,75.11
2019-05-09T11:54:09.194Z,73.66
2019-05-09T11:56:38.945Z,71.12
2019-05-09T11:59:08.258Z,69.39
2019-05-09T12:01:39.782Z,71.46
2019-05-09T12:04:09.000Z,69.01
2019-05-09T12:06:38.574Z,68.05
2019-05-09T12:09:09.193Z,69.09
2019-05-09T12:11:43.579Z,70.29
2019-05-09T12:14:09.833Z,69.83
2019-05-09T12:16:39.247Z,69.39
2019-05-09T12:19:08.637Z,69.30
2019-05-09T12:21:47.120Z,68.17
2019-05-09T12:24:09.263Z,70.68
2019-05-09T12:26:39.201Z,70.13
2019-05-09T12:29:08.946Z,69.87
2019-05-09T12:31:39.358Z,70.08
2019-05-09T12:34:09.457Z,69.13
2019-05-09T12:36:39.813Z,69.03
2019-05-09T12:39:09.523Z,67.70
2019-05-09T12:41:38.906Z,67.94
2019-05-09T12:44:09.002Z,68.11
2019-05-09T12:46:39.473Z,68.37
2019-05-09T12:49:09.222Z,69.33
2019-05-09T12:51:38.640Z,69.33
2019-05-09T12:54:08.741Z,69.79
2019-05-09T12:56:38.690Z,70.37
2019-05-09T12:59:08.808Z,70.19
2019-05-09T13:01:41.122Z,67.71
2019-05-09T13:04:10.453Z,64.83
2019-05-09T13:06:39.828Z,67.97
2019-05-09T13:09:09.217Z,70.20
2019-05-09T13:11:39.286Z,69.18
2019-05-09T13:14:10.068Z,68.60
2019-05-09T13:16:52.364Z,71.57
2019-05-09T13:19:19.658Z,69.02
2019-05-09T13:21:49.042Z,69.62
2019-05-09T13:24:19.605Z,70.05
2019-05-09T13:26:50.441Z,70.44
2019-05-09T13:29:19.828Z,69.42
2019-05-09T13:31:49.206Z,68.75
2019-05-09T13:34:19.042Z,69.51
2019-05-09T13:36:49.054Z,70.75
2019-05-09T13:39:18.503Z,71.11
2019-05-09T13:41:47.882Z,69.79
2019-05-09T13:44:18.053Z,69.64
2019-05-09T13:46:48.903Z,69.89
2019-05-09T13:49:19.438Z,68.21
2019-05-09T13:51:58.701Z,69.87
2019-05-09T13:54:20.158Z,68.54
2019-05-09T13:56:56.602Z,70.05
2019-05-09T13:59:20.732Z,70.00
2019-05-09T14:01:50.280Z,69.19
2019-05-09T14:04:19.745Z,69.33
2019-05-09T14:06:49.125Z,68.49
2019-05-09T14:09:19.884Z,68.59
2019-05-09T14:11:49.600Z,67.98
2019-05-09T14:14:18.982Z,66.51
2019-05-09T14:16:48.434Z,67.14
2019-05-09T14:19:36.191Z,68.29
2019-05-09T14:21:48.903Z,68.84
2019-05-09T14:24:19.373Z,68.63
2019-05-09T14:26:48.922Z,68.68
2019-05-09T14:29:20.499Z,68.13
2019-05-09T14:31:49.404Z,68.92
2019-05-09T14:34:19.726Z,66.40
2019-05-09T14:36:49.682Z,67.13
2019-05-09T14:39:19.302Z,64.24
2019-05-09T14:41:48.746Z,65.85
2019-05-09T14:44:18.368Z,64.11
2019-05-09T14:46:48.424Z,62.99
2019-05-09T14:49:18.449Z,63.08
2019-05-09T14:51:50.040Z,65.32
2019-05-09T14:54:18.927Z,65.32
2019-05-09T14:56:48.742Z,65.34
2019-05-09T14:59:19.146Z,66.89
2019-05-09T15:01:49.495Z,66.55
2019-05-09T15:04:20.186Z,67.50
2019-05-09T15:06:49.914Z,68.43
2019-05-09T15:09:19.292Z,67.43
2019-05-09T15:11:48.817Z,65.72
2019-05-09T15:14:18.397Z,66.22
2019-05-09T15:16:48.726Z,66.96
2019-05-09T15:19:19.129Z,66.67
2019-05-09T15:21:48.996Z,63.61
2019-05-09T15:24:19.312Z,64.27
2019-05-09T15:26:48.943Z,65.18
2019-05-09T15:29:18.322Z,65.76
2019-05-09T15:31:54.833Z,65.34
2019-05-09T15:34:18.804Z,67.49
2019-05-09T15:36:48.459Z,66.59
2019-05-09T15:39:18.518Z,66.81
2019-05-09T15:41:48.064Z,65.75
2019-05-09T15:44:18.638Z,66.62
2019-05-09T15:46:52.751Z,66.13
2019-05-09T15:49:22.133Z,65.28
2019-05-09T15:51:51.524Z,65.21
2019-05-09T15:54:20.900Z,63.13
2019-05-09T15:56:50.284Z,63.16
2019-05-09T15:59:19.664Z,65.38
2019-05-09T16:01:50.037Z,63.27
2019-05-09T16:04:19.487Z,64.22
2019-05-09T16:06:50.962Z,64.34
2019-05-09T16:09:20.049Z,63.14
2019-05-09T16:11:49.438Z,60.63
2019-05-09T16:14:18.838Z,60.49
2019-05-09T16:16:48.297Z,62.44
2019-05-09T16:19:17.681Z,61.92
2019-05-09T16:21:47.733Z,62.80
2019-05-09T16:24:18.988Z,61.67
2019-05-09T16:26:48.904Z,61.96
2019-05-09T16:29:18.670Z,61.96
2019-05-09T16:31:49.142Z,62.99
2019-05-09T16:34:18.521Z,64.29
2019-05-09T16:36:48.251Z,61.30
2019-05-09T16:39:18.185Z,63.83
2019-05-09T16:41:48.371Z,64.40
2019-05-09T16:44:18.543Z,62.40
2019-05-09T16:46:49.191Z,63.72
2019-05-09T16:49:19.886Z,65.32
2019-05-09T16:51:49.534Z,64.90
2019-05-09T16:54:19.488Z,64.07
2019-05-09T16:56:48.875Z,66.16
2019-05-09T16:59:18.342Z,66.50
2019-05-09T17:01:50.279Z,63.39
2019-05-09T17:04:20.010Z,61.26
2019-05-09T17:06:49.869Z,63.94
2019-05-09T17:09:19.247Z,63.73
2019-05-09T17:11:48.631Z,63.57
2019-05-09T17:14:19.303Z,64.05
2019-05-09T17:16:52.789Z,63.35
2019-05-09T17:19:21.145Z,63.35
2019-05-09T17:22:04.308Z,64.05
2019-05-09T17:24:33.670Z,65.64
2019-05-09T17:27:03.064Z,65.00
2019-05-09T17:29:32.440Z,67.05
2019-05-09T17:32:01.841Z,69.39
2019-05-09T17:34:31.279Z,70.54
2019-05-09T17:37:00.669Z,72.80
2019-05-09T17:39:30.123Z,72.81
2019-05-09T17:41:59.588Z,74.49
2019-05-09T17:44:28.974Z,73.03
2019-05-09T17:46:58.432Z,73.14
2019-05-09T17:49:28.154Z,72.92
2019-05-09T17:51:58.652Z,73.24
2019-05-09T17:54:28.723Z,73.69
2019-05-09T17:56:58.421Z,73.57
2019-05-09T17:59:29.221Z,73.22
2019-05-09T18:01:58.795Z,73.30
2019-05-09T18:04:28.982Z,72.73
2019-05-09T18:06:58.730Z,72.91
2019-05-09T18:09:28.687Z,76.24
2019-05-09T18:11:58.216Z,77.06
2019-05-09T18:14:27.910Z,78.38
2019-05-09T18:16:58.183Z,78.20
2019-05-09T18:19:29.259Z,78.77
2019-05-09T18:21:59.885Z,77.09
2019-05-09T18:24:29.257Z,77.59
2019-05-09T18:26:58.712Z,78.38
2019-05-09T18:29:28.628Z,79.83
2019-05-09T18:31:59.669Z,79.17
2019-05-09T18:34:29.135Z,78.50
2019-05-09T18:36:58.892Z,78.35
2019-05-09T18:39:28.541Z,79.57
2019-05-09T18:41:58.068Z,80.10
2019-05-09T18:44:27.654Z,79.14
2019-05-09T18:46:57.830Z,79.14
2019-05-09T18:49:27.342Z,79.60
2019-05-09T18:52:03.879Z,79.10
2019-05-09T18:54:27.874Z,77.98
2019-05-09T18:56:57.276Z,77.22
2019-05-09T18:59:26.680Z,76.77
2019-05-09T19:01:56.130Z,78.23
2019-05-09T19:04:25.545Z,78.59
2019-05-09T19:06:54.895Z,78.19
2019-05-09T19:09:24.312Z,78.42
2019-05-09T19:11:54.522Z,78.21
2019-05-09T19:14:24.425Z,78.42
2019-05-09T19:17:03.204Z,74.54
2019-05-09T19:19:37.201Z,76.22
2019-05-09T19:22:21.557Z,77.49
2019-05-09T19:24:38.503Z,77.92
2019-05-09T19:27:09.553Z,77.80
2019-05-09T19:29:38.927Z,79.39
2019-05-09T19:32:09.105Z,79.21
2019-05-09T19:34:39.442Z,77.37
2019-05-09T19:37:09.147Z,77.75
2019-05-09T19:39:38.852Z,78.94
2019-05-09T19:42:08.752Z,79.31
2019-05-09T19:44:38.730Z,79.57
2019-05-09T19:47:08.778Z,82.34
2019-05-09T19:49:39.237Z,83.49
2019-05-09T19:52:08.628Z,82.36
2019-05-09T19:54:38.004Z,81.96
2019-05-09T19:57:07.388Z,81.88
2019-05-09T19:59:36.792Z,82.36
2019-05-09T20:02:06.177Z,81.19
2019-05-09T20:04:35.638Z,80.77
2019-05-09T20:07:05.020Z,81.05
2019-05-09T20:09:36.117Z,80.54
2019-05-09T20:12:22.354Z,80.48
2019-05-09T20:14:53.459Z,80.25
2019-05-09T20:17:22.840Z,81.38
2019-05-09T20:19:52.203Z,81.33
2019-05-09T20:22:21.596Z,81.60
2019-05-09T20:24:50.971Z,78.79
2019-05-09T20:27:20.361Z,80.12
2019-05-09T20:29:49.742Z,80.27
2019-05-09T20:32:19.119Z,81.64
2019-05-09T20:34:48.578Z,81.73
2019-05-09T20:37:17.947Z,77.18
2019-05-09T20:39:47.678Z,81.04
2019-05-09T20:42:17.236Z,78.06
2019-05-09T20:44:46.806Z,79.03
2019-05-09T20:47:16.449Z,78.33
2019-05-09T20:49:47.090Z,79.11
2019-05-09T20:52:16.683Z,80.27
2019-05-09T20:54:46.312Z,79.97
2019-05-09T20:57:16.226Z,80.71
2019-05-09T20:59:46.571Z,82.38
2019-05-09T21:02:16.504Z,80.07
2019-05-09T21:04:46.459Z,79.43
2019-05-09T21:07:16.256Z,80.20
2019-05-09T21:09:45.819Z,79.61
2019-05-09T21:12:15.544Z,81.44
2019-05-09T21:14:45.801Z,82.11
2019-05-09T21:17:15.627Z,82.18
2019-05-09T21:19:46.017Z,82.11
2019-05-09T21:22:15.834Z,82.09
2019-05-09T21:24:45.884Z,83.36
2019-05-09T21:27:15.836Z,83.61
2019-05-09T21:29:45.918Z,79.33
2019-05-09T21:32:15.921Z,80.36
2019-05-09T21:34:45.883Z,81.16
2019-05-09T21:37:15.793Z,80.03
2019-05-09T21:39:46.067Z,81.64
2019-05-09T21:42:15.989Z,81.99
2019-05-09T21:44:46.001Z,81.87
2019-05-09T21:47:15.909Z,83.13
2019-05-09T21:49:46.131Z,82.81
2019-05-09T21:52:16.084Z,82.75
2019-05-09T21:54:46.137Z,82.50
2019-05-09T21:57:16.055Z,81.78
2019-05-09T21:59:46.270Z,81.25
2019-05-09T22:02:17.721Z,81.67
2019-05-09T22:04:47.239Z,81.67
2019-05-09T22:07:16.700Z,81.76
2019-05-09T22:09:46.270Z,83.87
2019-05-09T22:12:16.423Z,76.72
2019-05-09T22:14:46.452Z,78.73
2019-05-09T22:17:23.787Z,82.50
2019-05-09T22:19:53.175Z,83.50
2019-05-09T22:22:22.558Z,84.33
2019-05-09T22:24:51.932Z,83.10
2019-05-09T22:27:21.391Z,83.40
2019-05-09T22:29:50.764Z,83.75
2019-05-09T22:32:22.218Z,82.71
2019-05-09T22:34:51.244Z,80.72
2019-05-09T22:37:20.626Z,81.51
2019-05-09T22:39:50.015Z,82.04
2019-05-09T22:42:19.394Z,81.18
2019-05-09T22:44:49.083Z,82.06
2019-05-09T22:47:18.465Z,82.96
2019-05-09T22:49:47.843Z,82.45
2019-05-09T22:52:17.839Z,81.03
2019-05-09T22:54:48.013Z,84.19
2019-05-09T22:57:17.699Z,82.91
2019-05-09T22:59:47.689Z,82.46
2019-05-09T23:02:17.786Z,79.69
2019-05-09T23:04:47.750Z,80.45
2019-05-09T23:07:17.840Z,81.78
2019-05-09T23:09:47.845Z,81.89
2019-05-09T23:12:17.779Z,82.81
2019-05-09T23:14:47.804Z,83.46
2019-05-09T23:17:17.827Z,83.62
2019-05-09T23:19:47.840Z,84.04
2019-05-09T23:22:18.118Z,83.72
2019-05-09T23:24:47.797Z,83.21
2019-05-09T23:27:19.562Z,82.54
2019-05-09T23:29:48.971Z,81.56
2019-05-09T23:32:19.967Z,82.11
2019-05-09T23:34:49.338Z,82.15
2019-05-09T23:37:18.728Z,82.39
2019-05-09T23:39:49.752Z,81.87
2019-05-09T23:42:19.127Z,81.36
2019-05-09T23:44:48.516Z,81.95
2019-05-09T23:47:17.905Z,81.89
2019-05-09T23:49:48.047Z,79.72
2019-05-09T23:52:17.435Z,80.67
2019-05-09T23:55:05.167Z,78.32
2019-05-09T23:57:52.096Z,83.95
